首页
METAR-TAF:

METAR-TAF

机场 :

亚特兰大, 喬治亞, 美国

纬度: 33-46-39N, 经度: 084-31-28W, 海拔: 256米

当前天气观测

该预报发布于49分钟前的18:53 UTC
风速4节,风向北转西北
温度 19°C
湿度 52%
气压 1014 hPa
能見度: 16.1公里
散云层高于3500英尺

METAR: KFTY 171853Z 33004KT 10SM SCT035 19/09 A2995 RMK AO2 SLP140 T01890094

时间: 14:42 (19:42 UTC)

预报

该预报发布于2小时和3分钟前的17:39 UTC
预报有效从17日的 18点(UTC)到 18日的 18点(UTC)
风速4节,风向
能見度: 10公里
散云层高于3500英尺
从 17日的 1900点(UTC)
风速4节,风向多变
能見度: 10公里
散云层高于3500英尺
从 17日的 2000点(UTC)
风速4节,风向多变
能見度: 10公里
散云层高于4000英尺
从 18日的 0900点(UTC)
风速节,风向
能見度: 10公里
散云层高于3000英尺
从 18日的 1000点(UTC)
风速节,风向
能見度: 10公里
散云层高于3000英尺
从 18日的 1500点(UTC)
风速4节,风向西
能見度: 10公里
少量云层高于20000英尺

TAF: KFTY 171739Z 1718/1818 08004KT P6SM SCT035 FM171900 VRB04KT P6SM SCT035 FM172000 VRB04KT P6SM SCT040 FM180900 00000KT P6SM SCT030 FM181000 00000KT P6SM SCT030 FM181500 28004KT P6SM FEW200

超过4000个机场的气象观测和天气预报(METAR&TAF报告)。

可查询的气象台以黄色和红色小点在地图上表示。

将鼠标移到小点上方,可查看气象台名称。

然后点击查看天气观测和预报。

如需切换地图:点击带黑十字的绿色按钮放大地图;点击带横线的绿色按钮缩小地图;或者点击绿色箭头查看邻近地区的地图。


METAR-TAF: